sensor_id;sensor_type;location;lat;lon;timestamp;P1;durP1;ratioP1;P2;durP2;ratioP2
3085;SDS011;52812;48.960;9.108;2022-09-17T00:02:21;2.60;;;1.60;;
3085;SDS011;52812;48.960;9.108;2022-09-17T00:04:49;2.90;;;1.90;;
3085;SDS011;52812;48.960;9.108;2022-09-17T00:07:15;2.40;;;1.67;;
3085;SDS011;52812;48.960;9.108;2022-09-17T00:09:40;3.30;;;1.60;;
3085;SDS011;52812;48.960;9.108;2022-09-17T00:12:06;1.70;;;1.60;;
3085;SDS011;52812;48.960;9.108;2022-09-17T00:14:31;2.53;;;1.53;;
3085;SDS011;52812;48.960;9.108;2022-09-17T00:16:57;2.57;;;1.50;;
3085;SDS011;52812;48.960;9.108;2022-09-17T00:19:22;1.97;;;1.47;;
3085;SDS011;52812;48.960;9.108;2022-09-17T00:21:49;2.30;;;1.60;;
3085;SDS011;52812;48.960;9.108;2022-09-17T00:24:15;1.80;;;1.50;;
3085;SDS011;52812;48.960;9.108;2022-09-17T00:26:41;1.90;;;1.47;;
3085;SDS011;52812;48.960;9.108;2022-09-17T00:29:07;2.13;;;1.50;;
3085;SDS011;52812;48.960;9.108;2022-09-17T00:31:34;2.07;;;1.50;;
3085;SDS011;52812;48.960;9.108;2022-09-17T00:34:00;1.70;;;1.60;;
3085;SDS011;52812;48.960;9.108;2022-09-17T00:36:27;2.27;;;1.50;;
3085;SDS011;52812;48.960;9.108;2022-09-17T00:38:54;3.60;;;1.60;;
3085;SDS011;52812;48.960;9.108;2022-09-17T00:41:22;1.93;;;1.73;;
3085;SDS011;52812;48.960;9.108;2022-09-17T00:43:52;1.83;;;1.70;;
3085;SDS011;52812;48.960;9.108;2022-09-17T00:49:27;2.37;;;1.80;;
3085;SDS011;52812;48.960;9.108;2022-09-17T00:51:54;2.20;;;1.60;;
3085;SDS011;52812;48.960;9.108;2022-09-17T00:54:28;3.30;;;1.57;;
3085;SDS011;52812;48.960;9.108;2022-09-17T00:56:54;2.23;;;2.03;;
3085;SDS011;52812;48.960;9.108;2022-09-17T00:59:21;3.17;;;1.70;;
3085;SDS011;52812;48.960;9.108;2022-09-17T01:01:48;1.70;;;1.60;;
3085;SDS011;52812;48.960;9.108;2022-09-17T01:04:18;1.70;;;1.60;;
3085;SDS011;52812;48.960;9.108;2022-09-17T01:06:47;2.57;;;1.77;;
3085;SDS011;52812;48.960;9.108;2022-09-17T01:17:16;3.93;;;2.00;;
3085;SDS011;52812;48.960;9.108;2022-09-17T01:20:21;1.93;;;1.73;;
3085;SDS011;52812;48.960;9.108;2022-09-17T01:28:37;1.97;;;1.70;;
3085;SDS011;52812;48.960;9.108;2022-09-17T01:36:57;2.33;;;2.07;;
3085;SDS011;52812;48.960;9.108;2022-09-17T01:39:48;2.20;;;2.00;;
3085;SDS011;52812;48.960;9.108;2022-09-17T01:42:36;2.70;;;2.00;;
3085;SDS011;52812;48.960;9.108;2022-09-17T01:48:10;2.93;;;2.40;;
3085;SDS011;52812;48.960;9.108;2022-09-17T01:50:54;4.00;;;2.40;;
3085;SDS011;52812;48.960;9.108;2022-09-17T01:56:35;2.43;;;2.00;;
3085;SDS011;52812;48.960;9.108;2022-09-17T01:59:10;5.53;;;2.30;;
3085;SDS011;52812;48.960;9.108;2022-09-17T02:01:40;3.20;;;2.20;;
3085;SDS011;52812;48.960;9.108;2022-09-17T02:04:14;5.97;;;2.20;;
3085;SDS011;52812;48.960;9.108;2022-09-17T02:06:46;3.37;;;2.30;;
3085;SDS011;52812;48.960;9.108;2022-09-17T02:09:22;3.90;;;2.60;;
3085;SDS011;52812;48.960;9.108;2022-09-17T02:11:56;5.33;;;2.40;;
3085;SDS011;52812;48.960;9.108;2022-09-17T02:14:27;2.70;;;2.00;;
3085;SDS011;52812;48.960;9.108;2022-09-17T02:17:02;4.53;;;2.47;;
3085;SDS011;52812;48.960;9.108;2022-09-17T02:19:35;3.57;;;2.20;;
3085;SDS011;52812;48.960;9.108;2022-09-17T02:29:44;2.40;;;1.80;;
3085;SDS011;52812;48.960;9.108;2022-09-17T02:32:10;3.97;;;2.30;;
3085;SDS011;52812;48.960;9.108;2022-09-17T02:34:37;3.03;;;2.00;;
3085;SDS011;52812;48.960;9.108;2022-09-17T02:37:03;4.40;;;2.00;;
3085;SDS011;52812;48.960;9.108;2022-09-17T02:39:30;2.30;;;2.10;;
3085;SDS011;52812;48.960;9.108;2022-09-17T02:44:56;2.33;;;1.90;;
3085;SDS011;52812;48.960;9.108;2022-09-17T02:56:10;5.83;;;2.23;;
3085;SDS011;52812;48.960;9.108;2022-09-17T03:01:16;2.47;;;2.27;;
3085;SDS011;52812;48.960;9.108;2022-09-17T03:03:57;4.23;;;2.20;;
3085;SDS011;52812;48.960;9.108;2022-09-17T03:06:25;3.20;;;2.20;;
3085;SDS011;52812;48.960;9.108;2022-09-17T03:08:51;3.03;;;2.30;;
3085;SDS011;52812;48.960;9.108;2022-09-17T03:11:17;3.83;;;2.40;;
3085;SDS011;52812;48.960;9.108;2022-09-17T03:13:42;5.03;;;2.60;;
3085;SDS011;52812;48.960;9.108;2022-09-17T03:23:46;3.70;;;2.40;;
3085;SDS011;52812;48.960;9.108;2022-09-17T03:26:37;3.80;;;2.53;;
3085;SDS011;52812;48.960;9.108;2022-09-17T03:29:03;2.93;;;2.50;;
3085;SDS011;52812;48.960;9.108;2022-09-17T03:31:29;6.30;;;2.80;;
3085;SDS011;52812;48.960;9.108;2022-09-17T03:33:58;3.43;;;3.13;;
3085;SDS011;52812;48.960;9.108;2022-09-17T03:39:52;4.23;;;2.90;;
3085;SDS011;52812;48.960;9.108;2022-09-17T03:52:35;3.60;;;2.40;;
3085;SDS011;52812;48.960;9.108;2022-09-17T03:55:31;2.73;;;2.53;;
3085;SDS011;52812;48.960;9.108;2022-09-17T03:58:09;4.57;;;2.83;;
3085;SDS011;52812;48.960;9.108;2022-09-17T04:14:05;2.93;;;2.50;;
3085;SDS011;52812;48.960;9.108;2022-09-17T04:21:34;3.90;;;2.60;;
3085;SDS011;52812;48.960;9.108;2022-09-17T04:24:00;6.40;;;2.60;;
3085;SDS011;52812;48.960;9.108;2022-09-17T04:31:29;7.37;;;2.70;;
3085;SDS011;52812;48.960;9.108;2022-09-17T04:33:57;4.50;;;2.47;;
3085;SDS011;52812;48.960;9.108;2022-09-17T04:36:34;10.40;;;2.83;;
3085;SDS011;52812;48.960;9.108;2022-09-17T04:39:03;3.47;;;2.80;;
3085;SDS011;52812;48.960;9.108;2022-09-17T04:41:28;5.57;;;3.03;;
3085;SDS011;52812;48.960;9.108;2022-09-17T04:43:54;3.47;;;2.70;;
3085;SDS011;52812;48.960;9.108;2022-09-17T04:46:19;3.30;;;2.60;;
3085;SDS011;52812;48.960;9.108;2022-09-17T04:48:45;5.70;;;3.20;;
3085;SDS011;52812;48.960;9.108;2022-09-17T04:51:10;4.17;;;2.93;;
3085;SDS011;52812;48.960;9.108;2022-09-17T04:53:36;5.07;;;3.00;;
3085;SDS011;52812;48.960;9.108;2022-09-17T04:56:02;5.33;;;3.30;;
3085;SDS011;52812;48.960;9.108;2022-09-17T04:58:28;3.90;;;2.70;;
3085;SDS011;52812;48.960;9.108;2022-09-17T05:00:55;3.80;;;2.90;;
3085;SDS011;52812;48.960;9.108;2022-09-17T05:03:20;5.60;;;3.30;;
3085;SDS011;52812;48.960;9.108;2022-09-17T05:05:46;3.43;;;3.13;;
3085;SDS011;52812;48.960;9.108;2022-09-17T05:08:11;4.27;;;2.97;;
3085;SDS011;52812;48.960;9.108;2022-09-17T05:10:37;4.67;;;3.00;;
3085;SDS011;52812;48.960;9.108;2022-09-17T05:13:03;7.60;;;3.07;;
3085;SDS011;52812;48.960;9.108;2022-09-17T05:15:28;4.10;;;3.20;;
3085;SDS011;52812;48.960;9.108;2022-09-17T05:17:53;3.77;;;3.27;;
3085;SDS011;52812;48.960;9.108;2022-09-17T05:20:19;8.87;;;3.47;;
3085;SDS011;52812;48.960;9.108;2022-09-17T05:22:46;6.83;;;4.07;;
3085;SDS011;52812;48.960;9.108;2022-09-17T05:25:14;6.07;;;4.30;;
3085;SDS011;52812;48.960;9.108;2022-09-17T05:27:41;10.07;;;5.10;;
3085;SDS011;52812;48.960;9.108;2022-09-17T05:30:07;6.90;;;4.77;;
3085;SDS011;52812;48.960;9.108;2022-09-17T05:32:34;27.20;;;14.17;;
3085;SDS011;52812;48.960;9.108;2022-09-17T05:35:00;36.30;;;17.77;;
3085;SDS011;52812;48.960;9.108;2022-09-17T05:37:26;28.90;;;18.17;;
3085;SDS011;52812;48.960;9.108;2022-09-17T05:39:52;24.50;;;14.80;;
3085;SDS011;52812;48.960;9.108;2022-09-17T05:42:17;10.27;;;6.00;;
3085;SDS011;52812;48.960;9.108;2022-09-17T05:44:43;11.27;;;6.00;;
3085;SDS011;52812;48.960;9.108;2022-09-17T05:47:09;5.03;;;3.80;;
3085;SDS011;52812;48.960;9.108;2022-09-17T05:49:34;10.97;;;4.60;;
3085;SDS011;52812;48.960;9.108;2022-09-17T05:52:00;6.73;;;3.97;;
3085;SDS011;52812;48.960;9.108;2022-09-17T05:54:27;6.43;;;4.27;;
3085;SDS011;52812;48.960;9.108;2022-09-17T05:56:53;10.07;;;4.80;;
3085;SDS011;52812;48.960;9.108;2022-09-17T05:59:18;7.77;;;4.50;;
3085;SDS011;52812;48.960;9.108;2022-09-17T06:01:44;11.47;;;4.07;;
3085;SDS011;52812;48.960;9.108;2022-09-17T06:04:10;6.80;;;4.13;;
3085;SDS011;52812;48.960;9.108;2022-09-17T06:06:35;6.67;;;3.63;;
3085;SDS011;52812;48.960;9.108;2022-09-17T06:09:03;7.83;;;3.73;;
3085;SDS011;52812;48.960;9.108;2022-09-17T06:11:29;4.83;;;3.60;;
3085;SDS011;52812;48.960;9.108;2022-09-17T06:13:55;4.70;;;3.40;;
3085;SDS011;52812;48.960;9.108;2022-09-17T06:16:21;4.87;;;2.83;;
3085;SDS011;52812;48.960;9.108;2022-09-17T06:18:47;5.07;;;3.27;;
3085;SDS011;52812;48.960;9.108;2022-09-17T06:21:14;3.53;;;3.23;;
3085;SDS011;52812;48.960;9.108;2022-09-17T06:23:41;4.10;;;3.20;;
3085;SDS011;52812;48.960;9.108;2022-09-17T06:26:07;5.00;;;3.40;;
3085;SDS011;52812;48.960;9.108;2022-09-17T06:28:34;4.90;;;3.30;;
3085;SDS011;52812;48.960;9.108;2022-09-17T06:31:00;6.43;;;3.93;;
3085;SDS011;52812;48.960;9.108;2022-09-17T06:33:28;4.40;;;3.70;;
3085;SDS011;52812;48.960;9.108;2022-09-17T06:35:59;5.83;;;3.40;;
3085;SDS011;52812;48.960;9.108;2022-09-17T06:38:36;6.20;;;3.43;;
3085;SDS011;52812;48.960;9.108;2022-09-17T06:41:02;5.00;;;3.00;;
3085;SDS011;52812;48.960;9.108;2022-09-17T06:43:28;4.10;;;3.30;;
3085;SDS011;52812;48.960;9.108;2022-09-17T06:45:54;6.23;;;3.90;;
3085;SDS011;52812;48.960;9.108;2022-09-17T06:48:28;4.73;;;3.40;;
3085;SDS011;52812;48.960;9.108;2022-09-17T06:50:54;6.33;;;3.80;;
3085;SDS011;52812;48.960;9.108;2022-09-17T06:53:25;4.70;;;3.80;;
3085;SDS011;52812;48.960;9.108;2022-09-17T06:55:50;8.73;;;4.00;;
3085;SDS011;52812;48.960;9.108;2022-09-17T06:58:16;5.53;;;3.90;;
3085;SDS011;52812;48.960;9.108;2022-09-17T07:00:41;5.30;;;4.13;;
3085;SDS011;52812;48.960;9.108;2022-09-17T07:03:07;7.60;;;5.50;;
3085;SDS011;52812;48.960;9.108;2022-09-17T07:05:33;5.97;;;4.33;;
3085;SDS011;52812;48.960;9.108;2022-09-17T07:08:02;6.27;;;4.37;;
3085;SDS011;52812;48.960;9.108;2022-09-17T07:10:29;4.27;;;3.87;;
3085;SDS011;52812;48.960;9.108;2022-09-17T07:12:55;6.40;;;4.70;;
3085;SDS011;52812;48.960;9.108;2022-09-17T07:15:21;7.27;;;4.90;;
3085;SDS011;52812;48.960;9.108;2022-09-17T07:17:47;9.67;;;4.73;;
3085;SDS011;52812;48.960;9.108;2022-09-17T07:20:12;6.80;;;4.27;;
3085;SDS011;52812;48.960;9.108;2022-09-17T07:22:38;5.27;;;4.77;;
3085;SDS011;52812;48.960;9.108;2022-09-17T07:25:04;6.40;;;4.00;;
3085;SDS011;52812;48.960;9.108;2022-09-17T07:27:30;5.23;;;4.20;;
3085;SDS011;52812;48.960;9.108;2022-09-17T07:29:56;4.73;;;4.27;;
3085;SDS011;52812;48.960;9.108;2022-09-17T07:32:22;5.30;;;4.20;;
3085;SDS011;52812;48.960;9.108;2022-09-17T07:34:48;5.37;;;4.23;;
3085;SDS011;52812;48.960;9.108;2022-09-17T07:37:17;8.50;;;4.23;;
3085;SDS011;52812;48.960;9.108;2022-09-17T07:39:44;4.30;;;3.90;;
3085;SDS011;52812;48.960;9.108;2022-09-17T07:42:09;5.10;;;4.20;;
3085;SDS011;52812;48.960;9.108;2022-09-17T07:44:35;5.37;;;4.60;;
3085;SDS011;52812;48.960;9.108;2022-09-17T07:47:01;7.17;;;5.77;;
3085;SDS011;52812;48.960;9.108;2022-09-17T07:49:27;6.80;;;4.40;;
3085;SDS011;52812;48.960;9.108;2022-09-17T07:51:52;8.50;;;4.27;;
3085;SDS011;52812;48.960;9.108;2022-09-17T07:54:21;7.90;;;4.60;;
3085;SDS011;52812;48.960;9.108;2022-09-17T07:56:47;6.10;;;4.57;;
3085;SDS011;52812;48.960;9.108;2022-09-17T07:59:12;4.80;;;4.10;;
3085;SDS011;52812;48.960;9.108;2022-09-17T08:01:38;12.70;;;5.00;;
3085;SDS011;52812;48.960;9.108;2022-09-17T08:04:04;5.03;;;4.53;;
3085;SDS011;52812;48.960;9.108;2022-09-17T08:06:34;12.00;;;4.80;;
3085;SDS011;52812;48.960;9.108;2022-09-17T08:09:01;7.80;;;4.70;;
3085;SDS011;52812;48.960;9.108;2022-09-17T08:11:28;6.17;;;4.60;;
3085;SDS011;52812;48.960;9.108;2022-09-17T08:13:54;5.60;;;4.77;;
3085;SDS011;52812;48.960;9.108;2022-09-17T08:16:21;6.63;;;5.17;;
3085;SDS011;52812;48.960;9.108;2022-09-17T08:18:48;7.37;;;4.37;;
3085;SDS011;52812;48.960;9.108;2022-09-17T08:21:18;6.03;;;4.57;;
3085;SDS011;52812;48.960;9.108;2022-09-17T08:23:44;7.80;;;4.53;;
3085;SDS011;52812;48.960;9.108;2022-09-17T08:26:13;8.17;;;4.93;;
3085;SDS011;52812;48.960;9.108;2022-09-17T08:28:44;8.40;;;4.50;;
3085;SDS011;52812;48.960;9.108;2022-09-17T08:31:12;5.77;;;4.20;;
3085;SDS011;52812;48.960;9.108;2022-09-17T08:33:39;7.30;;;4.83;;
3085;SDS011;52812;48.960;9.108;2022-09-17T08:36:05;5.30;;;4.20;;
3085;SDS011;52812;48.960;9.108;2022-09-17T08:38:34;6.97;;;4.20;;
3085;SDS011;52812;48.960;9.108;2022-09-17T08:43:39;5.93;;;3.90;;
3085;SDS011;52812;48.960;9.108;2022-09-17T08:46:31;5.87;;;3.57;;
3085;SDS011;52812;48.960;9.108;2022-09-17T08:49:10;8.57;;;3.80;;
3085;SDS011;52812;48.960;9.108;2022-09-17T08:52:09;6.83;;;3.60;;
3085;SDS011;52812;48.960;9.108;2022-09-17T08:57:42;6.93;;;3.80;;
3085;SDS011;52812;48.960;9.108;2022-09-17T09:00:11;5.03;;;3.37;;
3085;SDS011;52812;48.960;9.108;2022-09-17T09:05:45;10.53;;;3.43;;
3085;SDS011;52812;48.960;9.108;2022-09-17T09:10:57;8.50;;;3.50;;
3085;SDS011;52812;48.960;9.108;2022-09-17T09:13:37;4.10;;;3.10;;
3085;SDS011;52812;48.960;9.108;2022-09-17T09:16:10;4.97;;;3.30;;
3085;SDS011;52812;48.960;9.108;2022-09-17T09:18:44;6.47;;;3.23;;
3085;SDS011;52812;48.960;9.108;2022-09-17T09:21:27;7.37;;;3.50;;
3085;SDS011;52812;48.960;9.108;2022-09-17T09:29:41;6.97;;;3.97;;
3085;SDS011;52812;48.960;9.108;2022-09-17T09:32:32;4.73;;;3.27;;
3085;SDS011;52812;48.960;9.108;2022-09-17T09:35:17;4.67;;;2.97;;
3085;SDS011;52812;48.960;9.108;2022-09-17T09:38:50;7.53;;;3.33;;
3085;SDS011;52812;48.960;9.108;2022-09-17T09:40:50;5.10;;;2.90;;
3085;SDS011;52812;48.960;9.108;2022-09-17T09:43:33;5.87;;;2.67;;
3085;SDS011;52812;48.960;9.108;2022-09-17T09:48:48;6.27;;;2.93;;
3085;SDS011;52812;48.960;9.108;2022-09-17T09:56:32;6.63;;;2.93;;
3085;SDS011;52812;48.960;9.108;2022-09-17T09:59:06;7.27;;;3.47;;
3085;SDS011;52812;48.960;9.108;2022-09-17T10:01:32;5.10;;;3.37;;
3085;SDS011;52812;48.960;9.108;2022-09-17T10:04:05;8.47;;;3.50;;
3085;SDS011;52812;48.960;9.108;2022-09-17T10:06:53;6.43;;;3.20;;
3085;SDS011;52812;48.960;9.108;2022-09-17T10:09:24;4.90;;;3.40;;
3085;SDS011;52812;48.960;9.108;2022-09-17T10:11:58;5.40;;;3.30;;
3085;SDS011;52812;48.960;9.108;2022-09-17T10:14:26;7.37;;;2.97;;
3085;SDS011;52812;48.960;9.108;2022-09-17T10:17:09;4.90;;;2.80;;
3085;SDS011;52812;48.960;9.108;2022-09-17T10:19:38;7.53;;;3.00;;
3085;SDS011;52812;48.960;9.108;2022-09-17T10:22:17;5.80;;;2.80;;
3085;SDS011;52812;48.960;9.108;2022-09-17T10:24:47;4.23;;;3.10;;
3085;SDS011;52812;48.960;9.108;2022-09-17T10:27:14;6.63;;;3.27;;
3085;SDS011;52812;48.960;9.108;2022-09-17T10:29:43;4.57;;;3.00;;
3085;SDS011;52812;48.960;9.108;2022-09-17T10:32:14;5.40;;;3.43;;
3085;SDS011;52812;48.960;9.108;2022-09-17T10:34:42;5.17;;;2.90;;
3085;SDS011;52812;48.960;9.108;2022-09-17T10:40:28;3.50;;;2.53;;
3085;SDS011;52812;48.960;9.108;2022-09-17T10:45:41;4.13;;;2.83;;
3085;SDS011;52812;48.960;9.108;2022-09-17T10:48:18;6.90;;;2.83;;
3085;SDS011;52812;48.960;9.108;2022-09-17T10:50:50;4.87;;;2.90;;
3085;SDS011;52812;48.960;9.108;2022-09-17T10:53:18;7.27;;;3.10;;
3085;SDS011;52812;48.960;9.108;2022-09-17T10:58:39;5.07;;;2.67;;
3085;SDS011;52812;48.960;9.108;2022-09-17T11:01:23;3.83;;;2.80;;
3085;SDS011;52812;48.960;9.108;2022-09-17T11:04:48;4.50;;;2.67;;
3085;SDS011;52812;48.960;9.108;2022-09-17T11:09:51;3.47;;;2.70;;
3085;SDS011;52812;48.960;9.108;2022-09-17T11:15:31;5.93;;;3.00;;
3085;SDS011;52812;48.960;9.108;2022-09-17T11:20:33;7.27;;;3.00;;
3085;SDS011;52812;48.960;9.108;2022-09-17T11:26:07;6.20;;;2.90;;
3085;SDS011;52812;48.960;9.108;2022-09-17T11:28:41;5.60;;;3.07;;
3085;SDS011;52812;48.960;9.108;2022-09-17T11:39:48;3.40;;;2.40;;
3085;SDS011;52812;48.960;9.108;2022-09-17T11:42:19;5.93;;;2.90;;
3085;SDS011;52812;48.960;9.108;2022-09-17T11:44:56;7.20;;;2.90;;
3085;SDS011;52812;48.960;9.108;2022-09-17T11:47:40;3.43;;;3.00;;
3085;SDS011;52812;48.960;9.108;2022-09-17T11:50:28;7.07;;;3.13;;
3085;SDS011;52812;48.960;9.108;2022-09-17T11:53:03;4.03;;;2.30;;
3085;SDS011;52812;48.960;9.108;2022-09-17T11:58:43;2.67;;;1.80;;
3085;SDS011;52812;48.960;9.108;2022-09-17T12:01:25;3.37;;;2.60;;
3085;SDS011;52812;48.960;9.108;2022-09-17T12:03:57;4.43;;;2.17;;
3085;SDS011;52812;48.960;9.108;2022-09-17T12:06:34;5.10;;;2.40;;
3085;SDS011;52812;48.960;9.108;2022-09-17T12:09:20;5.63;;;1.93;;
3085;SDS011;52812;48.960;9.108;2022-09-17T12:14:30;4.50;;;2.30;;
3085;SDS011;52812;48.960;9.108;2022-09-17T12:17:20;3.70;;;2.50;;
3085;SDS011;52812;48.960;9.108;2022-09-17T12:19:50;4.97;;;2.50;;
3085;SDS011;52812;48.960;9.108;2022-09-17T12:22:29;4.27;;;2.87;;
3085;SDS011;52812;48.960;9.108;2022-09-17T12:24:58;3.90;;;3.10;;
3085;SDS011;52812;48.960;9.108;2022-09-17T12:32:42;6.60;;;2.50;;
3085;SDS011;52812;48.960;9.108;2022-09-17T12:40:59;3.40;;;2.13;;
3085;SDS011;52812;48.960;9.108;2022-09-17T12:43:50;3.23;;;1.70;;
3085;SDS011;52812;48.960;9.108;2022-09-17T12:46:47;3.20;;;1.70;;
3085;SDS011;52812;48.960;9.108;2022-09-17T12:52:29;3.63;;;2.20;;
3085;SDS011;52812;48.960;9.108;2022-09-17T12:55:52;2.43;;;2.20;;
3085;SDS011;52812;48.960;9.108;2022-09-17T13:00:52;2.40;;;2.20;;
3085;SDS011;52812;48.960;9.108;2022-09-17T13:03:35;4.63;;;2.43;;
3085;SDS011;52812;48.960;9.108;2022-09-17T13:15:06;2.13;;;1.70;;
3085;SDS011;52812;48.960;9.108;2022-09-17T13:17:52;2.60;;;1.60;;
3085;SDS011;52812;48.960;9.108;2022-09-17T13:20:32;1.67;;;1.57;;
3085;SDS011;52812;48.960;9.108;2022-09-17T13:23:05;2.13;;;1.40;;
3085;SDS011;52812;48.960;9.108;2022-09-17T13:25:31;3.40;;;1.70;;
3085;SDS011;52812;48.960;9.108;2022-09-17T13:28:08;2.67;;;1.53;;
3085;SDS011;52812;48.960;9.108;2022-09-17T13:30:54;2.17;;;1.30;;
3085;SDS011;52812;48.960;9.108;2022-09-17T13:38:59;3.77;;;1.60;;
3085;SDS011;52812;48.960;9.108;2022-09-17T13:41:26;2.60;;;1.73;;
3085;SDS011;52812;48.960;9.108;2022-09-17T13:43:52;4.00;;;2.77;;
3085;SDS011;52812;48.960;9.108;2022-09-17T13:46:26;2.33;;;1.63;;
3085;SDS011;52812;48.960;9.108;2022-09-17T13:48:56;3.67;;;2.00;;
3085;SDS011;52812;48.960;9.108;2022-09-17T13:54:03;2.53;;;2.10;;
3085;SDS011;52812;48.960;9.108;2022-09-17T13:56:32;3.43;;;2.10;;
3085;SDS011;52812;48.960;9.108;2022-09-17T13:59:11;3.17;;;2.33;;
3085;SDS011;52812;48.960;9.108;2022-09-17T14:01:56;3.20;;;2.13;;
3085;SDS011;52812;48.960;9.108;2022-09-17T14:18:31;3.87;;;1.90;;
3085;SDS011;52812;48.960;9.108;2022-09-17T14:20:53;4.90;;;1.90;;
3085;SDS011;52812;48.960;9.108;2022-09-17T14:23:32;2.53;;;1.80;;
3085;SDS011;52812;48.960;9.108;2022-09-17T14:26:06;3.57;;;1.90;;
3085;SDS011;52812;48.960;9.108;2022-09-17T14:29:04;2.70;;;2.00;;
3085;SDS011;52812;48.960;9.108;2022-09-17T14:31:34;2.60;;;2.00;;
3085;SDS011;52812;48.960;9.108;2022-09-17T14:34:02;2.30;;;1.90;;
3085;SDS011;52812;48.960;9.108;2022-09-17T14:36:30;4.47;;;1.97;;
3085;SDS011;52812;48.960;9.108;2022-09-17T14:39:01;3.70;;;2.20;;
3085;SDS011;52812;48.960;9.108;2022-09-17T14:41:32;3.23;;;2.30;;
3085;SDS011;52812;48.960;9.108;2022-09-17T14:44:07;2.43;;;1.97;;
3085;SDS011;52812;48.960;9.108;2022-09-17T14:47:01;2.00;;;1.80;;
3085;SDS011;52812;48.960;9.108;2022-09-17T14:49:33;5.00;;;2.07;;
3085;SDS011;52812;48.960;9.108;2022-09-17T14:52:00;8.47;;;2.00;;
3085;SDS011;52812;48.960;9.108;2022-09-17T14:54:41;4.07;;;1.90;;
3085;SDS011;52812;48.960;9.108;2022-09-17T14:59:37;3.07;;;2.03;;
3085;SDS011;52812;48.960;9.108;2022-09-17T15:05:01;3.00;;;2.13;;
3085;SDS011;52812;48.960;9.108;2022-09-17T15:07:39;3.47;;;2.10;;
3085;SDS011;52812;48.960;9.108;2022-09-17T15:10:05;1.93;;;1.73;;
3085;SDS011;52812;48.960;9.108;2022-09-17T15:12:32;4.60;;;2.20;;
3085;SDS011;52812;48.960;9.108;2022-09-17T15:14:59;3.20;;;2.23;;
3085;SDS011;52812;48.960;9.108;2022-09-17T15:17:25;3.80;;;2.00;;
3085;SDS011;52812;48.960;9.108;2022-09-17T15:19:51;2.00;;;1.80;;
3085;SDS011;52812;48.960;9.108;2022-09-17T15:22:22;3.40;;;2.10;;
3085;SDS011;52812;48.960;9.108;2022-09-17T15:25:34;4.87;;;2.17;;
3085;SDS011;52812;48.960;9.108;2022-09-17T15:27:54;5.37;;;2.50;;
3085;SDS011;52812;48.960;9.108;2022-09-17T15:30:21;4.53;;;2.40;;
3085;SDS011;52812;48.960;9.108;2022-09-17T15:32:49;4.90;;;2.27;;
3085;SDS011;52812;48.960;9.108;2022-09-17T15:35:29;5.80;;;2.70;;
3085;SDS011;52812;48.960;9.108;2022-09-17T15:37:56;3.00;;;2.23;;
3085;SDS011;52812;48.960;9.108;2022-09-17T15:40:31;4.43;;;2.63;;
3085;SDS011;52812;48.960;9.108;2022-09-17T15:45:31;5.00;;;2.37;;
3085;SDS011;52812;48.960;9.108;2022-09-17T15:48:02;6.20;;;2.70;;
3085;SDS011;52812;48.960;9.108;2022-09-17T15:50:30;6.60;;;2.73;;
3085;SDS011;52812;48.960;9.108;2022-09-17T15:58:24;5.37;;;2.43;;
3085;SDS011;52812;48.960;9.108;2022-09-17T16:01:35;7.80;;;2.70;;
3085;SDS011;52812;48.960;9.108;2022-09-17T16:08:56;6.67;;;2.47;;
3085;SDS011;52812;48.960;9.108;2022-09-17T16:11:29;4.53;;;2.40;;
3085;SDS011;52812;48.960;9.108;2022-09-17T16:13:57;7.07;;;2.57;;
3085;SDS011;52812;48.960;9.108;2022-09-17T16:16:31;7.03;;;2.60;;
3085;SDS011;52812;48.960;9.108;2022-09-17T16:18:58;7.43;;;2.20;;
3085;SDS011;52812;48.960;9.108;2022-09-17T16:21:24;3.20;;;2.40;;
3085;SDS011;52812;48.960;9.108;2022-09-17T16:23:50;2.23;;;2.00;;
3085;SDS011;52812;48.960;9.108;2022-09-17T16:26:18;4.40;;;3.20;;
3085;SDS011;52812;48.960;9.108;2022-09-17T16:28:52;3.63;;;2.30;;
3085;SDS011;52812;48.960;9.108;2022-09-17T16:31:20;2.10;;;1.90;;
3085;SDS011;52812;48.960;9.108;2022-09-17T16:33:46;4.00;;;2.00;;
3085;SDS011;52812;48.960;9.108;2022-09-17T16:36:12;5.37;;;3.17;;
3085;SDS011;52812;48.960;9.108;2022-09-17T16:38:40;6.23;;;4.10;;
3085;SDS011;52812;48.960;9.108;2022-09-17T16:41:06;2.93;;;2.60;;
3085;SDS011;52812;48.960;9.108;2022-09-17T16:43:31;4.03;;;2.50;;
3085;SDS011;52812;48.960;9.108;2022-09-17T16:46:02;4.87;;;2.70;;
3085;SDS011;52812;48.960;9.108;2022-09-17T16:48:29;3.60;;;3.00;;
3085;SDS011;52812;48.960;9.108;2022-09-17T16:50:56;4.83;;;3.17;;
3085;SDS011;52812;48.960;9.108;2022-09-17T16:53:22;6.27;;;3.73;;
3085;SDS011;52812;48.960;9.108;2022-09-17T16:55:47;5.43;;;3.93;;
3085;SDS011;52812;48.960;9.108;2022-09-17T16:58:13;5.03;;;4.20;;
3085;SDS011;52812;48.960;9.108;2022-09-17T17:00:40;5.00;;;3.60;;
3085;SDS011;52812;48.960;9.108;2022-09-17T17:03:08;5.40;;;3.80;;
3085;SDS011;52812;48.960;9.108;2022-09-17T17:05:37;35.97;;;17.37;;
3085;SDS011;52812;48.960;9.108;2022-09-17T17:08:03;14.67;;;8.57;;
3085;SDS011;52812;48.960;9.108;2022-09-17T17:10:29;12.87;;;8.27;;
3085;SDS011;52812;48.960;9.108;2022-09-17T17:12:55;6.53;;;4.43;;
3085;SDS011;52812;48.960;9.108;2022-09-17T17:15:21;3.30;;;2.60;;
3085;SDS011;52812;48.960;9.108;2022-09-17T17:17:47;4.93;;;2.20;;
3085;SDS011;52812;48.960;9.108;2022-09-17T17:20:13;2.67;;;2.47;;
3085;SDS011;52812;48.960;9.108;2022-09-17T17:22:42;2.53;;;2.30;;
3085;SDS011;52812;48.960;9.108;2022-09-17T17:25:08;3.70;;;2.70;;
3085;SDS011;52812;48.960;9.108;2022-09-17T17:27:35;3.80;;;3.03;;
3085;SDS011;52812;48.960;9.108;2022-09-17T17:30:02;4.20;;;2.83;;
3085;SDS011;52812;48.960;9.108;2022-09-17T17:32:30;4.10;;;2.90;;
3085;SDS011;52812;48.960;9.108;2022-09-17T17:34:57;10.23;;;3.83;;
3085;SDS011;52812;48.960;9.108;2022-09-17T17:37:22;4.90;;;3.57;;
3085;SDS011;52812;48.960;9.108;2022-09-17T17:39:48;5.27;;;3.37;;
3085;SDS011;52812;48.960;9.108;2022-09-17T17:42:14;4.87;;;2.93;;
3085;SDS011;52812;48.960;9.108;2022-09-17T17:44:39;3.63;;;3.17;;
3085;SDS011;52812;48.960;9.108;2022-09-17T17:47:05;4.10;;;3.37;;
3085;SDS011;52812;48.960;9.108;2022-09-17T17:49:31;7.20;;;3.50;;
3085;SDS011;52812;48.960;9.108;2022-09-17T17:51:57;6.43;;;3.47;;
3085;SDS011;52812;48.960;9.108;2022-09-17T17:54:23;6.00;;;3.90;;
3085;SDS011;52812;48.960;9.108;2022-09-17T17:56:51;6.93;;;3.83;;
3085;SDS011;52812;48.960;9.108;2022-09-17T17:59:17;6.87;;;4.50;;
3085;SDS011;52812;48.960;9.108;2022-09-17T18:01:42;7.70;;;3.90;;
3085;SDS011;52812;48.960;9.108;2022-09-17T18:04:08;4.93;;;3.37;;
3085;SDS011;52812;48.960;9.108;2022-09-17T18:06:33;6.10;;;4.67;;
3085;SDS011;52812;48.960;9.108;2022-09-17T18:08:59;8.33;;;3.40;;
3085;SDS011;52812;48.960;9.108;2022-09-17T18:11:25;4.10;;;3.43;;
3085;SDS011;52812;48.960;9.108;2022-09-17T18:13:52;6.37;;;3.80;;
3085;SDS011;52812;48.960;9.108;2022-09-17T18:16:19;3.90;;;3.03;;
3085;SDS011;52812;48.960;9.108;2022-09-17T18:18:46;6.93;;;3.30;;
3085;SDS011;52812;48.960;9.108;2022-09-17T18:21:13;5.07;;;3.50;;
3085;SDS011;52812;48.960;9.108;2022-09-17T18:23:40;4.93;;;3.53;;
3085;SDS011;52812;48.960;9.108;2022-09-17T18:26:07;4.37;;;3.37;;
3085;SDS011;52812;48.960;9.108;2022-09-17T18:28:36;6.00;;;3.30;;
3085;SDS011;52812;48.960;9.108;2022-09-17T18:31:06;3.43;;;3.10;;
3085;SDS011;52812;48.960;9.108;2022-09-17T18:33:34;5.67;;;3.87;;
3085;SDS011;52812;48.960;9.108;2022-09-17T18:36:00;6.23;;;5.17;;
3085;SDS011;52812;48.960;9.108;2022-09-17T18:38:28;7.10;;;3.60;;
3085;SDS011;52812;48.960;9.108;2022-09-17T18:40:53;6.90;;;3.80;;
3085;SDS011;52812;48.960;9.108;2022-09-17T18:43:19;5.47;;;3.33;;
3085;SDS011;52812;48.960;9.108;2022-09-17T18:45:54;5.63;;;3.43;;
3085;SDS011;52812;48.960;9.108;2022-09-17T18:48:21;3.53;;;2.70;;
3085;SDS011;52812;48.960;9.108;2022-09-17T18:50:54;4.80;;;3.53;;
3085;SDS011;52812;48.960;9.108;2022-09-17T18:53:25;4.43;;;3.20;;
3085;SDS011;52812;48.960;9.108;2022-09-17T18:55:52;4.43;;;3.20;;
3085;SDS011;52812;48.960;9.108;2022-09-17T18:58:19;6.33;;;3.80;;
3085;SDS011;52812;48.960;9.108;2022-09-17T19:00:45;5.10;;;3.47;;
3085;SDS011;52812;48.960;9.108;2022-09-17T19:03:11;4.50;;;3.23;;